Time;durP1;ratioP1;P1;durP2;ratioP2;P2;SDS_P1;SDS_P2;PMS_P1;PMS_P2;Temp;Humidity;BMP_temperature;BMP_pressure;BME280_temperature;BME280_humidity;BME280_pressure;Samples;Min_cycle;Max_cycle;Signal;HPM_P1;HPM_P2
2023/05/06 00:00:54;;;;;;;;;;;;;;;;;;5088486;28;19924;-63
2023/05/06 00:03:20;;;;;;;;;;;;;;;;;;5090372;28;19951;-63
2023/05/06 00:05:46;;;;;;;;;;;;;;;;;;5091708;28;20540;-63
2023/05/06 00:08:12;;;;;;;;;;;;;;;;;;5091767;28;19924;-63
2023/05/06 00:10:38;;;;;;;;;;;;;;;;;;5091925;28;19920;-62
2023/05/06 00:13:04;;;;;;;;;;;;;;;;;;5090150;28;19998;-62
2023/05/06 00:15:30;;;;;;;;;;;;;;;;;;5080531;28;19924;-63
2023/05/06 00:17:56;;;;;;;;;;;;;;;;;;5087178;28;19924;-63
2023/05/06 00:20:21;;;;;;;;;;;;;;;;;;5087624;28;19971;-64
2023/05/06 00:22:47;;;;;;;;;;;;;;;;;;5090014;28;19966;-63
2023/05/06 00:25:13;;;;;;;;;;;;;;;;;;5088642;28;19924;-62
2023/05/06 00:27:39;;;;;;;;;;;;;;;;;;5085941;28;19928;-62
2023/05/06 00:30:05;;;;;;;;;;;;;;;;;;5093349;28;19920;-62
2023/05/06 00:32:31;;;;;;;;;;;;;;;;;;5088182;28;19920;-64
2023/05/06 00:34:57;;;;;;;;;;;;;;;;;;5093755;28;20658;-63
2023/05/06 00:37:23;;;;;;;;;;;;;;;;;;5091866;28;19924;-63
2023/05/06 00:39:49;;;;;;;;;;;;;;;;;;5093332;28;20336;-63
2023/05/06 00:42:14;;;;;;;;;;;;;;;;;;5079032;28;19920;-62
2023/05/06 00:44:40;;;;;;;;;;;;;;;;;;5093669;28;19920;-63
2023/05/06 00:47:06;;;;;;;;;;;;;;;;;;5093558;28;20370;-64
2023/05/06 00:49:32;;;;;;;;;;;;;;;;;;5091246;28;19982;-64
2023/05/06 00:51:58;;;;;;;;;;;;;;;;;;5090383;28;20335;-62
2023/05/06 00:54:25;;;;;;;;;;;;;;;;;;5093184;28;19920;-63
2023/05/06 00:56:51;;;;;;;;;;;;;;;;;;5081814;28;19920;-63
2023/05/06 00:59:16;;;;;;;;;;;;;;;;;;5088777;28;20007;-63
2023/05/06 01:01:42;;;;;;;;;;;;;;;;;;5095749;28;19924;-63
2023/05/06 01:04:08;;;;;;;;;;;;;;;;;;5096884;28;20020;-63
2023/05/06 01:06:34;;;;;;;;;;;;;;;;;;5094734;28;19928;-62
2023/05/06 01:09:00;;;;;;;;;;;;;;;;;;5094924;28;20019;-63
2023/05/06 01:11:26;;;;;;;;;;;;;;;;;;5094160;28;20417;-63
2023/05/06 01:13:52;;;;;;;;;;;;;;;;;;5086688;28;20329;-63
2023/05/06 01:16:18;;;;;;;;;;;;;;;;;;5091459;28;19920;-63
2023/05/06 01:18:44;;;;;;;;;;;;;;;;;;5089149;28;20014;-62
2023/05/06 01:21:11;;;;;;;;;;;;;;;;;;5095357;28;19935;-63
2023/05/06 01:23:37;;;;;;;;;;;;;;;;;;5088719;28;19927;-63
2023/05/06 01:26:03;;;;;;;;;;;;;;;;;;5088882;28;20574;-63
2023/05/06 01:28:29;;;;;;;;;;;;;;;;;;5087956;28;19928;-62
2023/05/06 01:30:55;;;;;;;;;;;;;;;;;;5087769;28;19928;-63
2023/05/06 01:33:21;;;;;;;;;;;;;;;;;;5092381;28;19920;-63
2023/05/06 01:35:47;;;;;;;;;;;;;;;;;;5093378;28;19924;-63
2023/05/06 01:38:13;;;;;;;;;;;;;;;;;;5091125;28;19982;-62
2023/05/06 01:40:39;;;;;;;;;;;;;;;;;;5092797;28;19935;-62
2023/05/06 01:43:05;;;;;;;;;;;;;;;;;;5090326;28;20002;-63
2023/05/06 01:45:31;;;;;;;;;;;;;;;;;;5089816;28;19953;-63
2023/05/06 01:47:56;;;;;;;;;;;;;;;;;;5087192;28;19924;-63
2023/05/06 01:50:22;;;;;;;;;;;;;;;;;;5089945;28;19924;-63
2023/05/06 01:52:48;;;;;;;;;;;;;;;;;;5093295;28;19927;-63
2023/05/06 01:55:14;;;;;;;;;;;;;;;;;;5099133;28;19924;-63
2023/05/06 01:57:40;;;;;;;;;;;;;;;;;;5090747;28;20360;-62
2023/05/06 02:00:06;;;;;;;;;;;;;;;;;;5089803;28;20568;-63
2023/05/06 02:02:32;;;;;;;;;;;;;;;;;;5092483;28;19920;-63
2023/05/06 02:04:58;;;;;;;;;;;;;;;;;;5090171;28;19925;-63
2023/05/06 02:07:23;;;;;;;;;;;;;;;;;;5085100;28;19928;-63
2023/05/06 02:09:49;;;;;;;;;;;;;;;;;;5076744;28;19972;-63
2023/05/06 02:12:15;;;;;;;;;;;;;;;;;;5091333;28;19924;-63
2023/05/06 02:14:41;;;;;;;;;;;;;;;;;;5090342;28;19920;-63
2023/05/06 02:17:07;;;;;;;;;;;;;;;;;;5090853;28;20392;-62
2023/05/06 02:19:33;;;;;;;;;;;;;;;;;;5087074;28;19926;-62
2023/05/06 02:21:59;;;;;;;;;;;;;;;;;;5084686;28;19927;-62
2023/05/06 02:24:25;;;;;;;;;;;;;;;;;;5089846;28;19929;-62
2023/05/06 02:26:51;;;;;;;;;;;;;;;;;;5090544;28;19924;-62
2023/05/06 02:29:17;;;;;;;;;;;;;;;;;;5090345;28;19920;-62
2023/05/06 02:31:43;;;;;;;;;;;;;;;;;;5089819;28;20247;-62
2023/05/06 02:34:09;;;;;;;;;;;;;;;;;;5086117;28;19942;-62
2023/05/06 02:36:35;;;;;;;;;;;;;;;;;;5090012;28;19932;-63
2023/05/06 02:39:01;;;;;;;;;;;;;;;;;;5087461;28;19928;-62
2023/05/06 02:41:26;;;;;;;;;;;;;;;;;;5091100;28;19932;-63
2023/05/06 02:43:52;;;;;;;;;;;;;;;;;;5092147;28;19977;-62
2023/05/06 02:46:18;;;;;;;;;;;;;;;;;;5090748;28;20409;-63
2023/05/06 02:48:45;;;;;;;;;;;;;;;;;;5089681;28;19927;-62
2023/05/06 02:51:11;;;;;;;;;;;;;;;;;;5089815;28;20013;-63
2023/05/06 02:53:37;;;;;;;;;;;;;;;;;;5090867;28;20007;-63
2023/05/06 02:56:02;;;;;;;;;;;;;;;;;;5090464;28;19973;-63
2023/05/06 02:58:28;;;;;;;;;;;;;;;;;;5088399;28;19924;-62
2023/05/06 03:00:54;;;;;;;;;;;;;;;;;;5091483;28;19924;-62
2023/05/06 03:03:20;;;;;;;;;;;;;;;;;;5091990;28;19977;-62
2023/05/06 03:05:46;;;;;;;;;;;;;;;;;;5091136;28;20350;-62
2023/05/06 03:08:12;;;;;;;;;;;;;;;;;;5076530;28;19920;-62
2023/05/06 03:10:38;;;;;;;;;;;;;;;;;;5072251;28;19932;-62
2023/05/06 03:13:04;;;;;;;;;;;;;;;;;;5072523;28;19924;-62
2023/05/06 03:15:31;;;;;;;;;;;;;;;;;;5083493;28;20314;-62
2023/05/06 03:17:56;;;;;;;;;;;;;;;;;;5092432;28;20638;-62
2023/05/06 03:20:22;;;;;;;;;;;;;;;;;;5095941;28;19935;-63
2023/05/06 03:22:49;;;;;;;;;;;;;;;;;;5089041;28;19920;-63
2023/05/06 03:25:14;;;;;;;;;;;;;;;;;;5090122;28;19939;-63
2023/05/06 03:27:40;;;;;;;;;;;;;;;;;;5094763;28;20301;-63
2023/05/06 03:30:07;;;;;;;;;;;;;;;;;;5098855;28;20315;-63
2023/05/06 03:32:33;;;;;;;;;;;;;;;;;;5091706;28;19920;-63
2023/05/06 03:34:59;;;;;;;;;;;;;;;;;;5083463;28;19977;-63
2023/05/06 03:37:25;;;;;;;;;;;;;;;;;;5089487;28;20550;-63
2023/05/06 03:39:51;;;;;;;;;;;;;;;;;;5090727;28;20015;-62
2023/05/06 03:42:17;;;;;;;;;;;;;;;;;;5096113;28;19920;-62
2023/05/06 03:44:43;;;;;;;;;;;;;;;;;;5111161;28;19977;-62
2023/05/06 03:47:09;;;;;;;;;;;;;;;;;;5111500;28;19924;-63
2023/05/06 03:49:35;;;;;;;;;;;;;;;;;;5101843;28;20369;-63
2023/05/06 03:52:01;;;;;;;;;;;;;;;;;;5090740;28;19974;-62
2023/05/06 03:54:27;;;;;;;;;;;;;;;;;;5090944;28;19924;-62
2023/05/06 03:56:53;;;;;;;;;;;;;;;;;;5091784;28;20389;-62
2023/05/06 03:59:19;;;;;;;;;;;;;;;;;;5090847;28;20012;-63
2023/05/06 04:01:45;;;;;;;;;;;;;;;;;;5087383;28;19978;-63
2023/05/06 04:04:10;;;;;;;;;;;;;;;;;;5088436;28;20036;-63
2023/05/06 04:06:36;;;;;;;;;;;;;;;;;;5089941;28;19927;-63
2023/05/06 04:09:05;;;;;;;;;;;;;;;;;;5084972;28;19924;-63
2023/05/06 04:11:30;;;;;;;;;;;;;;;;;;5094928;28;20417;-63
2023/05/06 04:13:56;;;;;;;;;;;;;;;;;;5094480;28;20014;-63
2023/05/06 04:16:22;;;;;;;;;;;;;;;;;;5095696;28;19920;-63
2023/05/06 04:18:50;;;;;;;;;;;;;;;;;;5077557;28;19965;-64
2023/05/06 04:21:17;;;;;;;;;;;;;;;;;;5064870;22;20039;-62
2023/05/06 04:23:43;;;;;;;;;;;;;;;;;;5054647;28;19978;-62
2023/05/06 04:26:09;;;;;;;;;;;;;;;;;;5055415;28;19925;-62
2023/05/06 04:28:35;;;;;;;;;;;;;;;;;;5032631;28;19920;-62
2023/05/06 04:31:01;;;;;;;;;;;;;;;;;;5004415;28;20405;-61
2023/05/06 04:33:27;;;;;;;;;;;;;;;;;;5055303;28;19924;-62
2023/05/06 04:35:53;;;;;;;;;;;;;;;;;;5037138;28;19925;-61
2023/05/06 04:38:20;;;;;;;;;;;;;;;;;;5053861;28;19920;-62
2023/05/06 04:40:46;;;;;;;;;;;;;;;;;;5033104;28;19960;-62
2023/05/06 04:43:12;;;;;;;;;;;;;;;;;;5044173;28;20409;-62
2023/05/06 04:45:39;;;;;;;;;;;;;;;;;;5034339;28;19974;-62
2023/05/06 04:48:04;;;;;;;;;;;;;;;;;;5037044;28;19924;-62
2023/05/06 04:50:30;;;;;;;;;;;;;;;;;;5036442;28;19925;-62
2023/05/06 04:52:56;;;;;;;;;;;;;;;;;;5055109;28;19936;-62
2023/05/06 04:55:22;;;;;;;;;;;;;;;;;;5054374;28;19971;-62
2023/05/06 04:57:48;;;;;;;;;;;;;;;;;;5054819;28;20340;-62
2023/05/06 05:00:15;;;;;;;;;;;;;;;;;;5036409;28;19928;-62
2023/05/06 05:02:41;;;;;;;;;;;;;;;;;;5053568;28;19968;-62
2023/05/06 05:05:07;;;;;;;;;;;;;;;;;;5036765;28;20026;-62
2023/05/06 05:07:32;;;;;;;;;;;;;;;;;;5066040;28;19928;-62
2023/05/06 05:09:58;;;;;;;;;;;;;;;;;;5070242;28;19920;-62
2023/05/06 05:12:24;;;;;;;;;;;;;;;;;;5059865;28;20007;-62
2023/05/06 05:14:50;;;;;;;;;;;;;;;;;;5044510;28;20249;-62
2023/05/06 05:17:16;;;;;;;;;;;;;;;;;;5056458;28;19921;-62
2023/05/06 05:19:42;;;;;;;;;;;;;;;;;;5052420;28;19927;-62
2023/05/06 05:22:08;;;;;;;;;;;;;;;;;;5033574;28;19932;-62
2023/05/06 05:24:34;;;;;;;;;;;;;;;;;;5034505;28;19979;-62
2023/05/06 05:27:01;;;;;;;;;;;;;;;;;;5053024;28;19920;-62
2023/05/06 05:29:26;;;;;;;;;;;;;;;;;;5051081;28;20351;-62
2023/05/06 05:31:52;;;;;;;;;;;;;;;;;;5044034;28;19924;-62
2023/05/06 05:34:18;;;;;;;;;;;;;;;;;;5047196;28;19921;-62
2023/05/06 05:36:44;;;;;;;;;;;;;;;;;;5051907;28;19944;-62
2023/05/06 05:39:10;;;;;;;;;;;;;;;;;;5051556;28;19929;-62
2023/05/06 05:41:36;;;;;;;;;;;;;;;;;;5037150;28;19936;-62
2023/05/06 05:44:02;;;;;;;;;;;;;;;;;;5052872;28;19921;-63
2023/05/06 05:46:28;;;;;;;;;;;;;;;;;;5053333;28;19925;-62
2023/05/06 05:48:54;;;;;;;;;;;;;;;;;;5056287;28;19932;-62
2023/05/06 05:51:20;;;;;;;;;;;;;;;;;;5033324;28;19962;-62
2023/05/06 05:53:46;;;;;;;;;;;;;;;;;;5040238;28;20019;-62
2023/05/06 05:56:11;;;;;;;;;;;;;;;;;;5068361;28;20019;-60
2023/05/06 05:58:37;;;;;;;;;;;;;;;;;;5053171;28;20011;-62
2023/05/06 06:01:04;;;;;;;;;;;;;;;;;;5050982;28;20389;-61
2023/05/06 06:03:30;;;;;;;;;;;;;;;;;;5034374;28;19928;-62
2023/05/06 06:05:55;;;;;;;;;;;;;;;;;;5051782;28;20537;-62
2023/05/06 06:08:21;;;;;;;;;;;;;;;;;;5052214;28;19936;-62
2023/05/06 06:10:47;;;;;;;;;;;;;;;;;;5060703;28;19935;-63
2023/05/06 06:13:13;;;;;;;;;;;;;;;;;;5051804;28;19920;-61
2023/05/06 06:15:40;;;;;;;;;;;;;;;;;;5051458;28;20007;-61
2023/05/06 06:18:07;;;;;;;;;;;;;;;;;;5052413;28;19920;-61
2023/05/06 06:20:33;;;;;;;;;;;;;;;;;;5033069;28;19959;-62
2023/05/06 06:22:59;;;;;;;;;;;;;;;;;;5050967;28;20358;-61
2023/05/06 06:25:25;;;;;;;;;;;;;;;;;;5052811;28;19932;-62
2023/05/06 06:27:51;;;;;;;;;;;;;;;;;;5050215;28;19924;-63
2023/05/06 06:30:17;;;;;;;;;;;;;;;;;;5047981;28;19925;-61
2023/05/06 06:32:43;;;;;;;;;;;;;;;;;;5050337;28;20007;-61
2023/05/06 06:35:08;;;;;;;;;;;;;;;;;;5033609;28;20374;-62
2023/05/06 06:37:34;;;;;;;;;;;;;;;;;;5050228;28;19928;-62
2023/05/06 06:40:00;;;;;;;;;;;;;;;;;;5049275;28;19928;-62
2023/05/06 06:42:26;;;;;;;;;;;;;;;;;;5047047;28;19921;-62
2023/05/06 06:44:52;;;;;;;;;;;;;;;;;;5049410;28;20003;-62
2023/05/06 06:47:18;;;;;;;;;;;;;;;;;;5048209;28;20015;-63
2023/05/06 06:49:44;;;;;;;;;;;;;;;;;;5046886;28;19928;-62
2023/05/06 06:52:10;;;;;;;;;;;;;;;;;;5051070;28;19939;-62
2023/05/06 06:54:36;;;;;;;;;;;;;;;;;;5052191;28;20330;-61
2023/05/06 06:57:01;;;;;;;;;;;;;;;;;;5055715;28;19966;-61
2023/05/06 06:59:28;;;;;;;;;;;;;;;;;;5050914;28;19925;-62
2023/05/06 07:01:53;;;;;;;;;;;;;;;;;;5052214;28;19970;-62
2023/05/06 07:04:19;;;;;;;;;;;;;;;;;;5051770;28;19921;-62
2023/05/06 07:06:45;;;;;;;;;;;;;;;;;;5050471;28;19921;-62
2023/05/06 07:09:12;;;;;;;;;;;;;;;;;;5050754;28;20382;-62
2023/05/06 07:11:38;;;;;;;;;;;;;;;;;;5051864;28;19966;-63
2023/05/06 07:14:03;;;;;;;;;;;;;;;;;;5050501;28;19921;-63
2023/05/06 07:16:29;;;;;;;;;;;;;;;;;;5051508;28;19970;-63
2023/05/06 07:18:55;;;;;;;;;;;;;;;;;;5063606;28;19925;-63
2023/05/06 07:21:21;;;;;;;;;;;;;;;;;;5053335;28;19983;-63
2023/05/06 07:23:47;;;;;;;;;;;;;;;;;;5058168;28;19920;-60
2023/05/06 07:26:13;;;;;;;;;;;;;;;;;;5029073;28;19925;-61
2023/05/06 07:28:39;;;;;;;;;;;;;;;;;;5043930;28;19925;-62
2023/05/06 07:31:05;;;;;;;;;;;;;;;;;;5048289;28;20294;-62
2023/05/06 07:33:31;;;;;;;;;;;;;;;;;;5047624;28;19921;-61
2023/05/06 07:35:57;;;;;;;;;;;;;;;;;;5051761;28;19931;-61
2023/05/06 07:38:23;;;;;;;;;;;;;;;;;;5048733;28;20669;-61
2023/05/06 07:40:49;;;;;;;;;;;;;;;;;;5048261;28;20023;-61
2023/05/06 07:43:15;;;;;;;;;;;;;;;;;;5032325;28;19952;-61
2023/05/06 07:45:41;;;;;;;;;;;;;;;;;;5049219;28;19985;-61
2023/05/06 07:48:07;;;;;;;;;;;;;;;;;;5050593;28;20435;-62
2023/05/06 07:50:33;;;;;;;;;;;;;;;;;;5049962;28;19928;-61
2023/05/06 07:52:59;;;;;;;;;;;;;;;;;;5047634;28;19932;-62
2023/05/06 07:55:25;;;;;;;;;;;;;;;;;;5049600;28;19989;-61
2023/05/06 07:57:51;;;;;;;;;;;;;;;;;;5049574;28;20410;-61
2023/05/06 08:00:17;;;;;;;;;;;;;;;;;;5050418;28;19932;-62
2023/05/06 08:02:43;;;;;;;;;;;;;;;;;;5047803;28;20286;-62
2023/05/06 08:05:09;;;;;;;;;;;;;;;;;;5051176;28;20058;-62
2023/05/06 08:07:34;;;;;;;;;;;;;;;;;;5048674;28;20023;-62
2023/05/06 08:10:00;;;;;;;;;;;;;;;;;;5047104;28;19929;-63
2023/05/06 08:12:26;;;;;;;;;;;;;;;;;;5025217;28;19924;-62
2023/05/06 08:14:53;;;;;;;;;;;;;;;;;;5045606;28;19921;-63
2023/05/06 08:17:19;;;;;;;;;;;;;;;;;;5048843;28;19956;-63
2023/05/06 08:19:45;;;;;;;;;;;;;;;;;;5023111;28;20600;-63
2023/05/06 08:22:11;;;;;;;;;;;;;;;;;;5038906;28;19931;-63
2023/05/06 08:24:37;;;;;;;;;;;;;;;;;;5036824;28;20056;-63
2023/05/06 08:27:03;;;;;;;;;;;;;;;;;;5039790;28;20012;-63
2023/05/06 08:29:29;;;;;;;;;;;;;;;;;;5027511;28;19936;-63
2023/05/06 08:31:55;;;;;;;;;;;;;;;;;;5028724;28;19921;-64
2023/05/06 08:34:22;;;;;;;;;;;;;;;;;;5028855;28;19933;-63
2023/05/06 08:36:48;;;;;;;;;;;;;;;;;;5028850;28;19921;-61
2023/05/06 08:39:14;;;;;;;;;;;;;;;;;;5029449;28;20275;-62
2023/05/06 08:41:39;;;;;;;;;;;;;;;;;;5029545;28;20382;-62
2023/05/06 08:44:05;;;;;;;;;;;;;;;;;;5034343;28;20397;-62
2023/05/06 08:46:31;;;;;;;;;;;;;;;;;;5023326;28;19925;-62
2023/05/06 08:48:57;;;;;;;;;;;;;;;;;;5026477;28;19921;-62
2023/05/06 08:51:23;;;;;;;;;;;;;;;;;;5028737;28;19925;-62
2023/05/06 08:53:50;;;;;;;;;;;;;;;;;;5031289;28;20381;-62
2023/05/06 08:56:16;;;;;;;;;;;;;;;;;;5031406;28;20372;-62
2023/05/06 08:58:42;;;;;;;;;;;;;;;;;;5048222;28;19951;-63
2023/05/06 09:01:08;;;;;;;;;;;;;;;;;;5037099;28;20331;-63
2023/05/06 09:03:34;;;;;;;;;;;;;;;;;;5031496;28;19929;-62
2023/05/06 09:05:59;;;;;;;;;;;;;;;;;;5015452;28;19966;-62
2023/05/06 09:08:25;;;;;;;;;;;;;;;;;;5027059;28;19920;-62
2023/05/06 09:10:51;;;;;;;;;;;;;;;;;;5029567;28;19925;-63
2023/05/06 09:13:18;;;;;;;;;;;;;;;;;;5029845;28;19921;-63
2023/05/06 09:15:44;;;;;;;;;;;;;;;;;;5030218;28;19925;-63
2023/05/06 09:18:09;;;;;;;;;;;;;;;;;;5026020;28;20345;-63
2023/05/06 09:20:35;;;;;;;;;;;;;;;;;;5029829;28;19991;-62
2023/05/06 09:23:01;;;;;;;;;;;;;;;;;;5028615;28;19957;-62
2023/05/06 09:25:27;;;;;;;;;;;;;;;;;;5031868;28;19937;-62
2023/05/06 09:27:53;;;;;;;;;;;;;;;;;;5029392;28;19928;-63
2023/05/06 09:30:19;;;;;;;;;;;;;;;;;;5019303;28;20338;-63
2023/05/06 09:32:48;;;;;;;;;;;;;;;;;;5028234;28;19921;-63
2023/05/06 09:35:14;;;;;;;;;;;;;;;;;;5030133;28;20440;-63
2023/05/06 09:37:40;;;;;;;;;;;;;;;;;;5028425;28;19936;-63
2023/05/06 09:40:06;;;;;;;;;;;;;;;;;;5028609;28;19974;-63
2023/05/06 09:42:32;;;;;;;;;;;;;;;;;;5031448;28;19956;-63
2023/05/06 09:44:58;;;;;;;;;;;;;;;;;;5039930;28;20015;-62
2023/05/06 09:47:24;;;;;;;;;;;;;;;;;;5029926;28;19951;-62
2023/05/06 09:49:50;;;;;;;;;;;;;;;;;;5028338;28;19976;-63
2023/05/06 09:52:18;;;;;;;;;;;;;;;;;;5027136;28;19921;-63
2023/05/06 09:54:45;;;;;;;;;;;;;;;;;;5023449;28;19921;-63
2023/05/06 09:57:12;;;;;;;;;;;;;;;;;;5028835;28;20333;-63
2023/05/06 09:59:38;;;;;;;;;;;;;;;;;;5032087;28;19929;-63
2023/05/06 10:02:04;;;;;;;;;;;;;;;;;;5028306;28;19941;-63
2023/05/06 10:04:30;;;;;;;;;;;;;;;;;;5029073;28;19924;-63
2023/05/06 10:06:56;;;;;;;;;;;;;;;;;;5026353;28;19988;-63
2023/05/06 10:09:21;;;;;;;;;;;;;;;;;;5026707;28;19921;-63
2023/05/06 10:11:47;;;;;;;;;;;;;;;;;;5025637;28;19925;-64
2023/05/06 10:14:13;;;;;;;;;;;;;;;;;;5019890;28;19983;-62
2023/05/06 10:16:39;;;;;;;;;;;;;;;;;;5024661;28;19995;-63
2023/05/06 10:19:06;;;;;;;;;;;;;;;;;;5046409;28;19964;-64
2023/05/06 10:21:33;;;;;;;;;;;;;;;;;;5047896;28;19975;-62
2023/05/06 10:23:59;;;;;;;;;;;;;;;;;;5035231;28;19935;-62
2023/05/06 10:26:25;;;;;;;;;;;;;;;;;;5048435;28;19921;-63
2023/05/06 10:28:51;;;;;;;;;;;;;;;;;;5051313;28;19925;-63
2023/05/06 10:31:17;;;;;;;;;;;;;;;;;;5025381;28;20515;-63
2023/05/06 10:33:43;;;;;;;;;;;;;;;;;;5046413;28;19964;-63
2023/05/06 10:36:09;;;;;;;;;;;;;;;;;;5049353;28;19925;-63
2023/05/06 10:38:35;;;;;;;;;;;;;;;;;;5035929;28;19928;-62
2023/05/06 10:41:01;;;;;;;;;;;;;;;;;;5035507;28;19932;-63
2023/05/06 10:43:27;;;;;;;;;;;;;;;;;;5047039;28;19987;-63
2023/05/06 10:45:53;;;;;;;;;;;;;;;;;;5052758;28;19921;-64
2023/05/06 10:48:19;;;;;;;;;;;;;;;;;;5037005;28;20008;-62
2023/05/06 10:50:44;;;;;;;;;;;;;;;;;;5034261;28;19921;-63
2023/05/06 10:53:10;;;;;;;;;;;;;;;;;;5041044;28;19986;-63
2023/05/06 10:55:36;;;;;;;;;;;;;;;;;;5046516;28;20335;-63
2023/05/06 10:58:02;;;;;;;;;;;;;;;;;;5049171;28;19975;-63
2023/05/06 11:00:28;;;;;;;;;;;;;;;;;;5046841;28;19936;-63
2023/05/06 11:02:54;;;;;;;;;;;;;;;;;;5054298;28;19924;-63
2023/05/06 11:05:22;;;;;;;;;;;;;;;;;;5052633;28;21577;-64
2023/05/06 11:07:48;;;;;;;;;;;;;;;;;;5038579;28;19925;-63
2023/05/06 11:10:14;;;;;;;;;;;;;;;;;;5033729;28;19974;-63
2023/05/06 11:12:40;;;;;;;;;;;;;;;;;;5029447;28;20388;-63
2023/05/06 11:15:06;;;;;;;;;;;;;;;;;;5051157;28;19932;-62
2023/05/06 11:17:32;;;;;;;;;;;;;;;;;;5047417;28;20045;-63
2023/05/06 11:19:58;;;;;;;;;;;;;;;;;;5043624;28;19924;-63
2023/05/06 11:22:24;;;;;;;;;;;;;;;;;;5049891;28;20019;-63
2023/05/06 11:24:50;;;;;;;;;;;;;;;;;;5040225;28;20449;-62
2023/05/06 11:27:19;;;;;;;;;;;;;;;;;;5033597;28;20011;-62
2023/05/06 11:29:45;;;;;;;;;;;;;;;;;;5059405;28;19925;-63
2023/05/06 11:32:11;;;;;;;;;;;;;;;;;;5043404;28;19951;-63
2023/05/06 11:34:37;;;;;;;;;;;;;;;;;;5035380;28;19933;-63
2023/05/06 11:37:03;;;;;;;;;;;;;;;;;;5051224;28;19928;-62
2023/05/06 11:39:29;;;;;;;;;;;;;;;;;;5040226;28;19928;-63
2023/05/06 11:41:55;;;;;;;;;;;;;;;;;;5048571;28;19929;-64
2023/05/06 11:44:21;;;;;;;;;;;;;;;;;;5051056;28;19964;-64
2023/05/06 11:46:47;;;;;;;;;;;;;;;;;;5049859;28;19920;-64
2023/05/06 11:49:13;;;;;;;;;;;;;;;;;;5035259;28;19969;-64
2023/05/06 11:51:39;;;;;;;;;;;;;;;;;;5055632;28;19920;-64
2023/05/06 11:54:05;;;;;;;;;;;;;;;;;;5048022;28;20404;-62
2023/05/06 11:56:31;;;;;;;;;;;;;;;;;;5010153;28;20042;-64
2023/05/06 11:58:57;;;;;;;;;;;;;;;;;;5032647;28;19960;-64
2023/05/06 12:01:23;;;;;;;;;;;;;;;;;;5048415;28;19934;-64
2023/05/06 12:03:49;;;;;;;;;;;;;;;;;;5049551;28;20274;-64
2023/05/06 12:06:15;;;;;;;;;;;;;;;;;;5055034;28;19970;-63
2023/05/06 12:08:41;;;;;;;;;;;;;;;;;;5035216;28;19940;-64
2023/05/06 12:11:07;;;;;;;;;;;;;;;;;;5046495;28;19921;-63
2023/05/06 12:13:35;;;;;;;;;;;;;;;;;;5051456;28;20050;-64
2023/05/06 12:16:01;;;;;;;;;;;;;;;;;;5050732;28;19925;-64
2023/05/06 12:18:27;;;;;;;;;;;;;;;;;;5047227;28;20439;-63
2023/05/06 12:20:53;;;;;;;;;;;;;;;;;;5040453;28;19924;-63
2023/05/06 12:23:20;;;;;;;;;;;;;;;;;;5054024;28;19921;-63
2023/05/06 12:25:48;;;;;;;;;;;;;;;;;;5052473;28;20034;-63
2023/05/06 12:28:14;;;;;;;;;;;;;;;;;;5057269;28;20239;-63
2023/05/06 12:30:40;;;;;;;;;;;;;;;;;;5045900;28;19920;-63
2023/05/06 12:33:06;;;;;;;;;;;;;;;;;;5035055;28;19921;-64
2023/05/06 12:35:32;;;;;;;;;;;;;;;;;;5051576;28;19924;-63
2023/05/06 12:37:58;;;;;;;;;;;;;;;;;;5055302;28;20016;-63
2023/05/06 12:40:24;;;;;;;;;;;;;;;;;;5051333;28;19925;-63
2023/05/06 12:42:50;;;;;;;;;;;;;;;;;;5018590;28;20374;-64
2023/05/06 12:45:16;;;;;;;;;;;;;;;;;;5052824;28;20046;-63
2023/05/06 12:47:42;;;;;;;;;;;;;;;;;;5034785;28;19921;-62
2023/05/06 12:50:08;;;;;;;;;;;;;;;;;;5052372;28;19927;-63
2023/05/06 12:52:34;;;;;;;;;;;;;;;;;;5035925;28;20356;-63
2023/05/06 12:55:00;;;;;;;;;;;;;;;;;;5048821;28;20055;-63
2023/05/06 12:57:26;;;;;;;;;;;;;;;;;;5050617;28;19924;-64
2023/05/06 12:59:52;;;;;;;;;;;;;;;;;;5055301;28;20008;-63
2023/05/06 13:02:18;;;;;;;;;;;;;;;;;;5049947;28;19933;-63
2023/05/06 13:04:45;;;;;;;;;;;;;;;;;;5051546;28;20357;-63
2023/05/06 13:07:11;;;;;;;;;;;;;;;;;;5049380;28;19928;-63
2023/05/06 13:09:37;;;;;;;;;;;;;;;;;;5055658;28;20267;-63
2023/05/06 13:12:03;;;;;;;;;;;;;;;;;;5032513;28;19973;-63
2023/05/06 13:14:29;;;;;;;;;;;;;;;;;;5054341;28;19940;-62
2023/05/06 13:16:55;;;;;;;;;;;;;;;;;;5033922;28;19966;-63
2023/05/06 13:19:21;;;;;;;;;;;;;;;;;;5052199;28;19942;-63
2023/05/06 13:21:47;;;;;;;;;;;;;;;;;;5035708;28;19925;-63
2023/05/06 13:24:13;;;;;;;;;;;;;;;;;;5052979;28;20015;-63
2023/05/06 13:26:39;;;;;;;;;;;;;;;;;;5039546;28;19967;-63
2023/05/06 13:29:05;;;;;;;;;;;;;;;;;;5050861;28;19924;-63
2023/05/06 13:31:31;;;;;;;;;;;;;;;;;;5048458;28;19924;-63
2023/05/06 13:33:57;;;;;;;;;;;;;;;;;;5046146;28;19968;-64
2023/05/06 13:36:23;;;;;;;;;;;;;;;;;;5048251;28;19956;-64
2023/05/06 13:38:49;;;;;;;;;;;;;;;;;;5058322;28;19921;-64
2023/05/06 13:41:15;;;;;;;;;;;;;;;;;;5058170;28;19983;-63
2023/05/06 13:43:41;;;;;;;;;;;;;;;;;;5035807;28;19929;-62
2023/05/06 13:46:07;;;;;;;;;;;;;;;;;;5049516;28;19943;-63
2023/05/06 13:48:33;;;;;;;;;;;;;;;;;;5061482;28;19921;-63
2023/05/06 13:50:59;;;;;;;;;;;;;;;;;;5051585;28;20016;-63
2023/05/06 13:53:25;;;;;;;;;;;;;;;;;;5033285;28;19928;-64
2023/05/06 13:55:51;;;;;;;;;;;;;;;;;;5041563;28;20047;-63
2023/05/06 13:58:17;;;;;;;;;;;;;;;;;;5050571;28;19947;-63
2023/05/06 14:00:42;;;;;;;;;;;;;;;;;;5049587;28;19929;-63
2023/05/06 14:03:08;;;;;;;;;;;;;;;;;;5052690;28;19921;-63
2023/05/06 14:05:34;;;;;;;;;;;;;;;;;;5049509;28;20433;-62
2023/05/06 14:08:00;;;;;;;;;;;;;;;;;;5061276;28;19947;-63
2023/05/06 14:10:26;;;;;;;;;;;;;;;;;;5049242;28;20475;-63
2023/05/06 14:12:52;;;;;;;;;;;;;;;;;;5047604;28;19961;-63
2023/05/06 14:15:18;;;;;;;;;;;;;;;;;;5050723;28;19932;-63
2023/05/06 14:17:44;;;;;;;;;;;;;;;;;;5054599;28;20663;-63
2023/05/06 14:20:10;;;;;;;;;;;;;;;;;;5053285;28;19935;-62
2023/05/06 14:22:36;;;;;;;;;;;;;;;;;;5049321;28;19931;-63
2023/05/06 14:25:02;;;;;;;;;;;;;;;;;;5051267;28;19929;-63
2023/05/06 14:27:28;;;;;;;;;;;;;;;;;;5053570;28;20259;-63
2023/05/06 14:29:54;;;;;;;;;;;;;;;;;;5050084;28;20012;-63
2023/05/06 14:32:20;;;;;;;;;;;;;;;;;;5047054;28;19990;-64
2023/05/06 14:34:46;;;;;;;;;;;;;;;;;;5050046;28;20019;-64
2023/05/06 14:37:11;;;;;;;;;;;;;;;;;;5048745;28;20706;-64
2023/05/06 14:39:37;;;;;;;;;;;;;;;;;;5048886;28;19925;-62
2023/05/06 14:42:03;;;;;;;;;;;;;;;;;;5050676;28;19924;-62
2023/05/06 14:44:29;;;;;;;;;;;;;;;;;;5042046;28;19925;-62
2023/05/06 14:46:55;;;;;;;;;;;;;;;;;;5048839;28;19924;-63
2023/05/06 14:49:21;;;;;;;;;;;;;;;;;;5049695;28;19929;-63
2023/05/06 14:51:50;;;;;;;;;;;;;;;;;;5055435;28;19928;-62
2023/05/06 14:54:16;;;;;;;;;;;;;;;;;;5050124;28;19924;-62
2023/05/06 14:56:44;;;;;;;;;;;;;;;;;;5053974;28;20019;-62
2023/05/06 14:59:10;;;;;;;;;;;;;;;;;;5050915;28;20371;-62
2023/05/06 15:01:36;;;;;;;;;;;;;;;;;;5047068;28;19936;-62
2023/05/06 15:04:02;;;;;;;;;;;;;;;;;;5042652;28;19952;-62
2023/05/06 15:06:28;;;;;;;;;;;;;;;;;;5050367;28;20337;-62
2023/05/06 15:08:53;;;;;;;;;;;;;;;;;;5031530;28;19920;-62
2023/05/06 15:11:20;;;;;;;;;;;;;;;;;;5066376;28;20023;-62
2023/05/06 15:13:46;;;;;;;;;;;;;;;;;;5047979;28;20566;-62
2023/05/06 15:16:12;;;;;;;;;;;;;;;;;;5050792;28;19921;-62
2023/05/06 15:18:40;;;;;;;;;;;;;;;;;;5051311;28;19932;-62
2023/05/06 15:21:06;;;;;;;;;;;;;;;;;;5045182;28;19939;-62
2023/05/06 15:23:32;;;;;;;;;;;;;;;;;;5037458;28;19924;-62
2023/05/06 15:25:58;;;;;;;;;;;;;;;;;;5034805;28;19924;-62
2023/05/06 15:28:24;;;;;;;;;;;;;;;;;;5046375;28;20061;-63
2023/05/06 15:30:49;;;;;;;;;;;;;;;;;;5045025;28;20058;-63
2023/05/06 15:33:15;;;;;;;;;;;;;;;;;;5048400;28;20347;-62
2023/05/06 15:35:41;;;;;;;;;;;;;;;;;;5032077;28;19935;-62
2023/05/06 15:38:07;;;;;;;;;;;;;;;;;;5038469;28;19925;-62
2023/05/06 15:40:33;;;;;;;;;;;;;;;;;;5046544;28;19929;-62
2023/05/06 15:42:59;;;;;;;;;;;;;;;;;;5044664;28;19932;-63
2023/05/06 15:45:26;;;;;;;;;;;;;;;;;;5044736;28;19925;-63
2023/05/06 15:47:53;;;;;;;;;;;;;;;;;;5049152;28;19925;-63
2023/05/06 15:50:18;;;;;;;;;;;;;;;;;;5049376;28;20307;-63
2023/05/06 15:52:45;;;;;;;;;;;;;;;;;;5047416;28;19920;-63
2023/05/06 15:55:11;;;;;;;;;;;;;;;;;;5063660;28;19925;-64
2023/05/06 15:57:36;;;;;;;;;;;;;;;;;;5051841;28;20263;-62
2023/05/06 16:00:03;;;;;;;;;;;;;;;;;;5043721;28;21638;-62
2023/05/06 16:02:30;;;;;;;;;;;;;;;;;;5032500;28;19967;-62
2023/05/06 16:04:56;;;;;;;;;;;;;;;;;;5058083;28;20401;-63
2023/05/06 16:07:21;;;;;;;;;;;;;;;;;;5065846;28;19932;-62
2023/05/06 16:09:47;;;;;;;;;;;;;;;;;;5049210;28;19955;-62
2023/05/06 16:12:13;;;;;;;;;;;;;;;;;;5053546;28;19998;-63
2023/05/06 16:14:39;;;;;;;;;;;;;;;;;;5051840;28;19924;-63
2023/05/06 16:17:05;;;;;;;;;;;;;;;;;;5041008;28;20572;-63
2023/05/06 16:19:33;;;;;;;;;;;;;;;;;;5058649;28;19933;-63
2023/05/06 16:21:59;;;;;;;;;;;;;;;;;;5054858;28;19963;-63
2023/05/06 16:24:25;;;;;;;;;;;;;;;;;;5066681;28;19920;-63
2023/05/06 16:26:51;;;;;;;;;;;;;;;;;;5057924;28;19925;-64
2023/05/06 16:29:19;;;;;;;;;;;;;;;;;;5059822;28;19973;-63
2023/05/06 16:31:45;;;;;;;;;;;;;;;;;;5057510;28;20536;-62
2023/05/06 16:34:11;;;;;;;;;;;;;;;;;;5054405;22;20362;31
2023/05/06 16:36:37;;;;;;;;;;;;;;;;;;5050278;28;19935;-65